Time;durP1;ratioP1;P1;durP2;ratioP2;P2;SDS_P1;SDS_P2;PMS_P1;PMS_P2;Temp;Humidity;BMP_temperature;BMP_pressure;BME280_temperature;BME280_humidity;BME280_pressure;Samples;Min_cycle;Max_cycle;Signal;HPM_P1;HPM_P2
2021/08/18 00:01:52;;;;;;;5.33;2.37;;;22.20;83.10;;;;;;5038197;28;20439;-43
2021/08/18 00:04:25;;;;;;;3.57;3.00;;;22.20;82.90;;;;;;5021131;28;20413;-43
2021/08/18 00:06:56;;;;;;;3.90;2.40;;;22.60;82.70;;;;;;5031034;28;20453;-44
2021/08/18 00:09:27;;;;;;;5.43;2.70;;;22.80;81.20;;;;;;5040231;28;20485;-43
2021/08/18 00:11:58;;;;;;;5.40;2.67;;;22.80;81.30;;;;;;5040758;28;20449;-43
2021/08/18 00:14:29;;;;;;;2.33;2.13;;;23.10;81.30;;;;;;5040570;28;20460;-42
2021/08/18 00:17:01;;;;;;;5.03;2.50;;;23.10;80.70;;;;;;5040754;28;20497;-43
2021/08/18 00:19:35;;;;;;;4.87;2.47;;;23.30;77.60;;;;;;5038600;28;20500;-43
2021/08/18 00:22:06;;;;;;;2.97;2.03;;;23.20;79.90;;;;;;5038723;28;20975;-43
2021/08/18 00:24:37;;;;;;;5.13;2.40;;;22.90;82.40;;;;;;5025941;28;20503;-43
2021/08/18 00:27:09;;;;;;;3.87;3.10;;;22.90;81.00;;;;;;5025444;28;20481;-44
2021/08/18 00:29:42;;;;;;;3.80;2.80;;;22.80;80.30;;;;;;5039179;28;20428;-44
2021/08/18 00:32:13;;;;;;;2.97;2.20;;;23.00;80.00;;;;;;5046328;28;20471;-42
2021/08/18 00:34:46;;;;;;;3.30;2.10;;;23.20;77.30;;;;;;5047707;28;20532;-43
2021/08/18 00:37:18;;;;;;;3.40;2.47;;;23.10;78.00;;;;;;5053491;28;20460;-42
2021/08/18 00:39:48;;;;;;;4.87;2.80;;;23.10;77.00;;;;;;5056239;28;20475;-42
2021/08/18 00:42:20;;;;;;;3.47;2.53;;;22.90;77.50;;;;;;5039510;28;20424;-42
2021/08/18 00:44:51;;;;;;;7.23;2.20;;;22.90;82.10;;;;;;5039423;28;20454;-43
2021/08/18 00:47:22;;;;;;;5.63;2.47;;;23.00;79.90;;;;;;5041443;28;20450;-42
2021/08/18 00:49:55;;;;;;;4.90;2.50;;;22.90;78.40;;;;;;5044621;27;20440;-42
2021/08/18 00:52:26;;;;;;;4.60;2.70;;;22.70;82.10;;;;;;5039486;28;20514;-42
2021/08/18 00:54:57;;;;;;;6.50;3.00;;;22.70;81.70;;;;;;5045133;28;20489;-42
2021/08/18 00:57:28;;;;;;;5.87;2.47;;;22.80;83.40;;;;;;5042524;28;20787;-42
2021/08/18 01:00:01;;;;;;;3.37;2.30;;;22.70;80.50;;;;;;5040038;28;20438;-42
2021/08/18 01:02:32;;;;;;;3.93;2.60;;;22.90;79.90;;;;;;5037004;28;20454;-42
2021/08/18 01:05:06;;;;;;;5.37;2.50;;;22.90;79.20;;;;;;5037939;28;20890;-42
2021/08/18 01:07:38;;;;;;;6.17;2.30;;;22.60;80.70;;;;;;5038711;28;20542;-42
2021/08/18 01:10:11;;;;;;;4.20;2.67;;;22.50;81.90;;;;;;5049452;28;20468;-42
2021/08/18 01:12:42;;;;;;;5.57;2.50;;;22.60;81.40;;;;;;5042355;28;20449;-42
2021/08/18 01:15:15;;;;;;;3.77;2.40;;;22.60;82.60;;;;;;5039118;28;20516;-42
2021/08/18 01:17:48;;;;;;;4.83;2.73;;;22.70;79.80;;;;;;5042898;28;20480;-42
2021/08/18 01:20:26;;;;;;;2.73;1.90;;;22.60;82.20;;;;;;5047191;28;20482;-42
2021/08/18 01:22:58;;;;;;;4.53;2.60;;;22.50;81.50;;;;;;5039053;28;20487;-42
2021/08/18 01:25:30;;;;;;;3.30;2.40;;;22.50;82.50;;;;;;5039760;28;20517;-42
2021/08/18 01:28:02;;;;;;;3.83;2.63;;;22.50;81.50;;;;;;5059557;28;20444;-42
2021/08/18 01:30:36;;;;;;;3.13;2.57;;;22.60;83.30;;;;;;5052034;28;20534;-42
2021/08/18 01:33:09;;;;;;;4.63;2.60;;;22.70;83.60;;;;;;5031540;28;20442;-43
2021/08/18 01:35:46;;;;;;;2.77;2.40;;;22.90;81.80;;;;;;5043362;28;20544;-43
2021/08/18 01:38:20;;;;;;;5.13;2.93;;;22.90;81.40;;;;;;5038974;28;20463;-43
2021/08/18 01:40:53;;;;;;;6.47;2.80;;;22.90;82.60;;;;;;5050111;28;20815;-43
2021/08/18 01:43:25;;;;;;;3.90;2.60;;;22.90;83.80;;;;;;5066079;28;20448;-42
2021/08/18 01:45:57;;;;;;;3.80;2.43;;;22.80;80.90;;;;;;5064415;28;20448;-42
2021/08/18 01:48:31;;;;;;;3.70;2.37;;;22.90;78.60;;;;;;5065770;28;20511;-43
2021/08/18 01:51:03;;;;;;;3.60;3.03;;;22.70;80.70;;;;;;5051883;28;20494;-43
2021/08/18 01:53:35;;;;;;;5.70;3.20;;;22.70;82.00;;;;;;5043350;28;20456;-43
2021/08/18 01:56:07;;;;;;;6.40;2.80;;;22.70;82.00;;;;;;5045946;28;20488;-43
2021/08/18 01:58:38;;;;;;;6.17;3.20;;;22.60;82.50;;;;;;5050221;28;20470;-43
2021/08/18 02:01:16;;;;;;;5.57;2.80;;;22.60;81.30;;;;;;5047093;28;20508;-42
2021/08/18 02:03:49;;;;;;;4.27;2.77;;;22.40;82.30;;;;;;5045954;28;20949;-42
2021/08/18 02:06:21;;;;;;;3.30;2.77;;;22.20;83.50;;;;;;5058441;28;20464;-42
2021/08/18 02:08:52;;;;;;;4.10;2.67;;;22.00;85.80;;;;;;5051003;28;20461;-42
2021/08/18 02:11:23;;;;;;;4.53;2.53;;;21.90;85.10;;;;;;5045467;28;20632;-42
2021/08/18 02:13:55;;;;;;;6.07;4.00;;;21.80;86.70;;;;;;5028485;27;20448;-42
2021/08/18 02:16:27;;;;;;;4.90;2.70;;;21.70;87.10;;;;;;5050753;28;20548;-42
2021/08/18 02:18:59;;;;;;;4.80;2.53;;;21.80;88.00;;;;;;5062547;28;20472;-42
2021/08/18 02:21:30;;;;;;;7.33;3.00;;;21.80;87.80;;;;;;5047760;28;20410;-43
2021/08/18 02:24:01;;;;;;;5.90;3.00;;;21.60;87.50;;;;;;5043668;27;20453;-43
2021/08/18 02:26:32;;;;;;;5.17;2.60;;;21.60;89.60;;;;;;5050794;28;20426;-43
2021/08/18 02:29:03;;;;;;;2.70;2.47;;;21.60;91.30;;;;;;5064762;28;20422;-42
2021/08/18 02:31:35;;;;;;;5.27;2.50;;;21.60;90.20;;;;;;5053847;28;20419;-42
2021/08/18 02:34:09;;;;;;;5.20;2.33;;;21.50;91.00;;;;;;5051712;28;20411;-43
2021/08/18 02:36:39;;;;;;;4.17;3.07;;;21.30;91.30;;;;;;5064719;28;20487;-41
2021/08/18 02:39:10;;;;;;;5.90;2.73;;;21.20;90.80;;;;;;5053974;28;20427;-43
2021/08/18 02:41:41;;;;;;;4.60;2.80;;;21.10;91.10;;;;;;5033051;27;20459;-43
2021/08/18 02:44:12;;;;;;;5.13;2.87;;;21.00;91.60;;;;;;5047186;27;20449;-43
2021/08/18 02:46:45;;;;;;;6.60;2.70;;;20.90;92.60;;;;;;5041550;28;20480;-41
2021/08/18 02:49:18;;;;;;;4.53;2.80;;;20.90;92.50;;;;;;5041411;28;20457;-42
2021/08/18 02:51:49;;;;;;;3.30;2.77;;;20.90;92.50;;;;;;5040158;28;20492;-42
2021/08/18 02:54:20;;;;;;;6.57;2.60;;;20.80;92.70;;;;;;5041656;28;20451;-43
2021/08/18 02:56:51;;;;;;;4.90;2.90;;;20.80;93.00;;;;;;5038772;28;20489;-42
2021/08/18 02:59:22;;;;;;;4.87;2.47;;;20.70;93.40;;;;;;5044899;28;20430;-42
2021/08/18 03:01:54;;;;;;;5.07;2.50;;;20.60;93.50;;;;;;5041226;28;20447;-42
2021/08/18 03:04:26;;;;;;;4.67;2.77;;;20.50;94.30;;;;;;5048096;27;20502;-44
2021/08/18 03:06:57;;;;;;;6.33;2.93;;;20.50;95.40;;;;;;5041301;28;20468;-42
2021/08/18 03:09:28;;;;;;;4.70;2.60;;;20.40;94.40;;;;;;5042102;28;20473;-42
2021/08/18 03:11:59;;;;;;;5.20;3.20;;;20.40;95.30;;;;;;5039924;28;20512;-43
2021/08/18 03:14:30;;;;;;;5.13;2.70;;;20.20;95.00;;;;;;5042257;28;20937;-42
2021/08/18 03:17:03;;;;;;;4.57;3.07;;;20.10;94.90;;;;;;5042414;28;20485;-42
2021/08/18 03:19:34;;;;;;;7.53;3.50;;;20.10;95.80;;;;;;5043951;28;20570;-42
2021/08/18 03:22:06;;;;;;;4.13;2.70;;;19.90;96.00;;;;;;5031985;28;20437;-42
2021/08/18 03:24:37;;;;;;;5.63;2.83;;;19.80;96.20;;;;;;5038851;28;20504;-43
2021/08/18 03:27:08;;;;;;;4.90;3.50;;;19.70;96.80;;;;;;5035061;28;20453;-43
2021/08/18 03:29:39;;;;;;;4.87;3.20;;;19.50;97.60;;;;;;5045526;28;20432;-43
2021/08/18 03:32:12;;;;;;;4.70;3.20;;;19.40;98.30;;;;;;5061142;28;20456;-42
2021/08/18 03:34:43;;;;;;;4.00;2.80;;;19.30;98.60;;;;;;5050919;27;20479;-43
2021/08/18 03:37:14;;;;;;;5.77;3.80;;;19.20;99.20;;;;;;5038859;28;20497;-43
2021/08/18 03:39:45;;;;;;;6.97;3.10;;;19.10;98.90;;;;;;5046343;28;20449;-42
2021/08/18 03:42:16;;;;;;;7.40;3.27;;;19.00;99.90;;;;;;5060655;28;20573;-42
2021/08/18 03:44:47;;;;;;;3.90;3.27;;;18.90;99.90;;;;;;5080674;27;20456;-42
2021/08/18 03:47:19;;;;;;;4.80;3.80;;;18.90;99.90;;;;;;5067839;27;20493;-42
2021/08/18 03:49:50;;;;;;;4.90;3.73;;;18.80;99.90;;;;;;5057425;28;20474;-42
2021/08/18 03:52:21;;;;;;;6.07;3.80;;;18.70;99.90;;;;;;5032832;28;20569;-43
2021/08/18 03:54:53;;;;;;;7.87;5.40;;;18.70;99.90;;;;;;5043647;28;20960;-42
2021/08/18 03:57:24;;;;;;;6.93;5.93;;;18.70;99.90;;;;;;5038198;27;20521;-43
2021/08/18 03:59:55;;;;;;;7.43;5.30;;;18.60;99.90;;;;;;5051693;28;20452;-42
2021/08/18 04:02:27;;;;;;;8.30;6.40;;;18.50;99.90;;;;;;5040972;28;20456;-42
2021/08/18 04:05:01;;;;;;;6.63;5.30;;;18.40;99.90;;;;;;5045429;27;20449;-44
2021/08/18 04:07:32;;;;;;;6.63;5.93;;;18.30;99.90;;;;;;5035186;27;20461;-44
2021/08/18 04:10:04;;;;;;;7.30;6.13;;;18.20;99.90;;;;;;5040695;28;20453;-42
2021/08/18 04:12:50;;;;;;;6.73;5.77;;;18.10;99.90;;;;;;5051950;28;20484;-43
2021/08/18 04:15:22;;;;;;;7.17;5.43;;;18.00;99.90;;;;;;5040130;28;20482;-42
2021/08/18 04:17:56;;;;;;;5.23;4.73;;;18.00;99.90;;;;;;5045239;27;20525;-43
2021/08/18 04:20:27;;;;;;;4.87;4.43;;;17.90;99.90;;;;;;5044387;28;20485;-43
2021/08/18 04:22:59;;;;;;;5.73;4.03;;;17.90;99.90;;;;;;5040799;28;20970;-43
2021/08/18 04:25:30;;;;;;;6.93;6.13;;;17.90;99.90;;;;;;5040528;28;20453;-43
2021/08/18 04:28:01;;;;;;;8.20;7.40;;;17.80;99.90;;;;;;5060365;28;20448;-42
2021/08/18 04:30:32;;;;;;;9.67;8.77;;;17.80;99.90;;;;;;5043968;27;20454;-42
2021/08/18 04:33:05;;;;;;;9.50;7.90;;;17.70;99.90;;;;;;5049789;28;20471;-42
2021/08/18 04:35:36;;;;;;;7.77;6.50;;;17.70;99.90;;;;;;5059391;27;20577;-43
2021/08/18 04:38:07;;;;;;;6.60;5.00;;;17.50;99.90;;;;;;5039836;28;20484;-42
2021/08/18 04:40:38;;;;;;;7.80;5.50;;;17.50;99.90;;;;;;5040696;28;20442;-43
2021/08/18 04:43:12;;;;;;;7.43;5.27;;;17.50;99.90;;;;;;5048549;28;20501;-43
2021/08/18 04:45:44;;;;;;;6.90;4.60;;;17.50;99.90;;;;;;5040938;28;20448;-43
2021/08/18 04:48:16;;;;;;;7.00;4.97;;;17.50;99.90;;;;;;5038126;28;20477;-42
2021/08/18 04:50:47;;;;;;;7.70;6.73;;;17.50;99.90;;;;;;5053252;28;20468;-43
2021/08/18 04:53:18;;;;;;;9.33;7.37;;;17.40;99.90;;;;;;5045810;28;20445;-43
2021/08/18 04:55:50;;;;;;;5.47;4.70;;;17.40;99.90;;;;;;5037741;28;20473;-43
2021/08/18 04:58:21;;;;;;;6.73;4.53;;;17.50;99.90;;;;;;5033502;28;20484;-42
2021/08/18 05:00:52;;;;;;;7.60;4.07;;;17.50;99.90;;;;;;5041854;28;20445;-43
2021/08/18 05:03:25;;;;;;;10.07;4.47;;;17.50;99.90;;;;;;5035831;28;20452;-42
2021/08/18 05:05:57;;;;;;;5.47;3.40;;;17.60;99.90;;;;;;5038825;28;20457;-42
2021/08/18 05:08:28;;;;;;;6.27;3.53;;;17.60;99.90;;;;;;5028218;28;20487;-42
2021/08/18 05:11:02;;;;;;;6.00;3.50;;;17.50;99.90;;;;;;5035678;28;20532;-43
2021/08/18 05:13:33;;;;;;;7.90;3.93;;;17.60;99.90;;;;;;5045922;28;20499;-43
2021/08/18 05:16:04;;;;;;;8.07;3.90;;;17.70;99.90;;;;;;5059901;28;20448;-43
2021/08/18 05:18:37;;;;;;;8.57;5.60;;;17.80;99.90;;;;;;5052839;28;20513;-43
2021/08/18 05:21:08;;;;;;;12.37;7.47;;;17.90;99.90;;;;;;5039298;28;20470;-43
2021/08/18 05:23:39;;;;;;;14.20;9.80;;;18.00;99.90;;;;;;5047676;27;20538;-43
2021/08/18 05:26:10;;;;;;;18.90;11.13;;;18.00;99.90;;;;;;5032317;28;21071;-43
2021/08/18 05:28:41;;;;;;;16.13;11.97;;;17.90;99.90;;;;;;5038658;28;20462;-43
2021/08/18 05:31:12;;;;;;;17.80;13.37;;;17.90;99.90;;;;;;5036164;28;20466;-43
2021/08/18 05:33:45;;;;;;;19.63;13.90;;;17.90;99.90;;;;;;5032798;28;20590;-42
2021/08/18 05:36:16;;;;;;;16.70;12.67;;;17.90;99.90;;;;;;5034584;28;20477;-43
2021/08/18 05:38:47;;;;;;;12.67;11.27;;;17.90;99.90;;;;;;5036458;28;20521;-42
2021/08/18 05:41:18;;;;;;;15.10;10.77;;;17.90;99.90;;;;;;5036221;28;20469;-42
2021/08/18 05:43:49;;;;;;;16.40;11.10;;;17.90;99.90;;;;;;5030332;28;20450;-43
2021/08/18 05:46:20;;;;;;;11.40;10.20;;;17.80;99.90;;;;;;5040325;28;20445;-43
2021/08/18 05:48:52;;;;;;;10.90;9.07;;;17.80;99.90;;;;;;5041522;28;20785;-43
2021/08/18 05:51:23;;;;;;;10.07;7.20;;;17.70;99.90;;;;;;5037865;28;20466;-43
2021/08/18 05:53:54;;;;;;;10.33;7.27;;;17.70;99.90;;;;;;5030930;28;20511;-42
2021/08/18 05:56:25;;;;;;;10.70;7.43;;;17.70;99.90;;;;;;5038920;28;20486;-42
2021/08/18 05:58:56;;;;;;;8.43;6.40;;;17.60;99.90;;;;;;5034609;28;20517;-42
2021/08/18 06:01:27;;;;;;;9.77;6.63;;;17.50;99.90;;;;;;5038928;28;20513;-42
2021/08/18 06:04:00;;;;;;;7.37;6.03;;;17.50;99.90;;;;;;5044263;28;20434;-43
2021/08/18 06:06:31;;;;;;;11.03;6.17;;;17.50;99.90;;;;;;5045816;28;20528;-43
2021/08/18 06:09:02;;;;;;;8.07;4.97;;;17.40;99.90;;;;;;5058422;28;20448;-43
2021/08/18 06:11:33;;;;;;;8.77;4.43;;;17.40;99.90;;;;;;5025083;28;20449;-42
2021/08/18 06:14:04;;;;;;;9.90;5.10;;;17.50;99.90;;;;;;5049630;28;20445;-42
2021/08/18 06:16:35;;;;;;;8.60;4.87;;;17.40;99.90;;;;;;5044946;28;20866;-43
2021/08/18 06:21:59;;;;;;;8.73;4.57;;;17.40;99.90;;;;;;5037178;28;20471;-43
2021/08/18 06:24:40;;;;;;;6.00;3.70;;;17.50;99.90;;;;;;5052629;28;20525;-43
2021/08/18 06:27:12;;;;;;;9.67;4.60;;;17.40;99.90;;;;;;5048351;28;20459;-42
2021/08/18 06:29:43;;;;;;;8.80;4.03;;;17.30;99.90;;;;;;5053782;28;20476;-41
2021/08/18 06:32:14;;;;;;;5.23;3.33;;;17.30;99.90;;;;;;5056616;28;20449;-43
2021/08/18 06:34:47;;;;;;;7.00;4.60;;;17.30;99.90;;;;;;5058276;28;20437;-42
2021/08/18 06:37:31;;;;;;;7.00;3.87;;;17.30;99.90;;;;;;5061379;28;20440;-42
2021/08/18 06:40:03;;;;;;;5.50;3.67;;;17.30;99.90;;;;;;5062399;28;20820;-43
2021/08/18 06:42:34;;;;;;;7.40;4.10;;;17.30;99.90;;;;;;5044522;28;20460;-43
2021/08/18 06:45:05;;;;;;;7.87;4.33;;;17.20;99.90;;;;;;5045539;28;20906;-42
2021/08/18 06:47:38;;;;;;;7.40;5.27;;;17.20;99.90;;;;;;5056961;28;20464;-43
2021/08/18 06:50:13;;;;;;;7.33;4.27;;;17.20;99.90;;;;;;5053702;28;20453;-42
2021/08/18 06:52:44;;;;;;;6.40;4.00;;;17.10;99.90;;;;;;5041335;28;20457;-42
2021/08/18 06:55:15;;;;;;;7.13;4.23;;;17.10;99.90;;;;;;5042567;28;20487;-42
2021/08/18 06:57:47;;;;;;;8.13;4.67;;;17.10;99.90;;;;;;5041635;28;20481;-41
2021/08/18 07:00:18;;;;;;;9.40;5.67;;;16.90;99.90;;;;;;5044439;27;20590;-42
2021/08/18 07:02:51;;;;;;;11.20;4.63;;;16.90;99.90;;;;;;5033768;28;20474;-42
2021/08/18 07:05:30;;;;;;;7.53;4.30;;;16.80;99.90;;;;;;5040942;28;20441;-42
2021/08/18 07:08:01;;;;;;;9.13;4.70;;;16.70;99.90;;;;;;5053826;28;20524;-42
2021/08/18 07:10:32;;;;;;;7.60;4.40;;;16.70;99.90;;;;;;5059353;28;20470;-43
2021/08/18 07:13:03;;;;;;;7.00;4.63;;;16.70;99.90;;;;;;5042093;28;20450;-42
2021/08/18 07:15:34;;;;;;;10.40;4.40;;;16.70;99.90;;;;;;5039380;28;20568;-42
2021/08/18 07:18:06;;;;;;;6.27;4.57;;;16.70;99.90;;;;;;5038001;28;20914;-43
2021/08/18 07:20:39;;;;;;;9.10;4.73;;;16.60;99.90;;;;;;5037292;28;20477;-43
2021/08/18 07:23:10;;;;;;;6.10;4.20;;;16.50;99.90;;;;;;5040180;28;20823;-43
2021/08/18 07:25:41;;;;;;;5.27;3.70;;;16.40;99.90;;;;;;5041834;28;20593;-43
2021/08/18 07:28:12;;;;;;;9.17;4.97;;;16.30;99.90;;;;;;5043050;28;20468;-42
2021/08/18 07:30:43;;;;;;;9.07;4.77;;;16.40;99.90;;;;;;5046137;28;20545;-42
2021/08/18 07:33:14;;;;;;;6.60;4.67;;;16.30;99.90;;;;;;5051883;28;20960;-42
2021/08/18 07:35:47;;;;;;;6.13;4.40;;;16.20;99.90;;;;;;5061320;28;20876;-43
2021/08/18 07:38:18;;;;;;;9.97;4.77;;;16.20;99.90;;;;;;5053240;28;20480;-42
2021/08/18 07:40:48;;;;;;;9.37;4.50;;;16.10;99.90;;;;;;5049463;28;20476;-42
2021/08/18 07:43:19;;;;;;;9.60;4.60;;;16.10;99.90;;;;;;5040638;28;20453;-42
2021/08/18 07:45:50;;;;;;;6.50;4.60;;;16.20;99.90;;;;;;5025455;28;20541;-42
2021/08/18 07:48:22;;;;;;;8.80;5.13;;;16.10;99.90;;;;;;5048906;28;20445;-42
2021/08/18 07:50:54;;;;;;;5.90;4.60;;;16.10;99.90;;;;;;5050651;27;20559;-41
2021/08/18 07:53:25;;;;;;;8.33;4.80;;;16.10;99.90;;;;;;5040121;28;20481;-42
2021/08/18 07:55:56;;;;;;;8.00;4.70;;;16.00;99.90;;;;;;5039802;28;20454;-43
2021/08/18 07:58:27;;;;;;;6.67;4.60;;;15.90;99.90;;;;;;5041485;28;20457;-43
2021/08/18 08:00:58;;;;;;;5.30;4.37;;;15.80;99.90;;;;;;5042700;28;20517;-42
2021/08/18 08:03:29;;;;;;;6.30;4.20;;;15.70;99.90;;;;;;5036358;28;20453;-42
2021/08/18 08:06:02;;;;;;;8.10;5.07;;;15.70;99.90;;;;;;5041938;28;20472;-42
2021/08/18 08:08:33;;;;;;;7.13;5.00;;;15.70;99.90;;;;;;5038084;28;20484;-42
2021/08/18 08:11:04;;;;;;;7.07;4.37;;;15.70;99.90;;;;;;5049252;28;20453;-42
2021/08/18 08:13:35;;;;;;;6.43;4.10;;;15.70;99.90;;;;;;5047007;28;20532;-43
2021/08/18 08:16:06;;;;;;;8.20;4.80;;;15.60;99.90;;;;;;5040893;28;20513;-42
2021/08/18 08:18:37;;;;;;;7.73;4.87;;;15.60;99.90;;;;;;5040734;28;20534;-43
2021/08/18 08:21:10;;;;;;;11.10;4.63;;;15.60;99.90;;;;;;5041316;28;20446;-43
2021/08/18 08:23:43;;;;;;;9.37;4.80;;;15.60;99.90;;;;;;5044974;27;20451;-43
2021/08/18 08:26:14;;;;;;;10.50;4.80;;;15.50;99.90;;;;;;5040365;28;20481;-43
2021/08/18 08:28:45;;;;;;;9.33;4.87;;;15.50;99.90;;;;;;5051485;28;20898;-43
2021/08/18 08:31:16;;;;;;;6.60;3.90;;;15.50;99.90;;;;;;5039844;28;20588;-43
2021/08/18 08:33:47;;;;;;;8.50;4.27;;;15.40;99.90;;;;;;5037647;28;20501;-42
2021/08/18 08:36:20;;;;;;;6.60;4.23;;;15.30;99.90;;;;;;5037940;28;20588;-42
2021/08/18 08:38:51;;;;;;;8.57;4.97;;;15.30;99.90;;;;;;5040772;28;20529;-42
2021/08/18 08:41:22;;;;;;;6.07;4.47;;;15.30;99.90;;;;;;5044674;28;20520;-42
2021/08/18 08:43:54;;;;;;;8.10;4.17;;;15.30;99.90;;;;;;5052813;28;21034;-42
2021/08/18 08:46:25;;;;;;;8.40;4.57;;;15.20;99.90;;;;;;5040597;28;20534;-43
2021/08/18 08:48:58;;;;;;;6.63;4.70;;;15.20;99.90;;;;;;5040628;28;20930;-43
2021/08/18 08:51:33;;;;;;;6.53;4.03;;;15.20;99.90;;;;;;5046467;28;20472;-43
2021/08/18 08:54:04;;;;;;;6.77;4.00;;;15.20;99.90;;;;;;5043546;28;20470;-41
2021/08/18 08:56:36;;;;;;;8.27;4.53;;;15.10;99.90;;;;;;5040565;28;20862;-42
2021/08/18 08:59:07;;;;;;;7.73;4.10;;;15.10;99.90;;;;;;5042965;28;20450;-42
2021/08/18 09:02:02;;;;;;;5.90;4.63;;;15.00;99.90;;;;;;5038664;28;20465;-43
2021/08/18 09:04:35;;;;;;;13.53;5.50;;;15.00;99.90;;;;;;5025841;28;20499;-42
2021/08/18 09:07:13;;;;;;;7.37;4.33;;;15.00;99.90;;;;;;5039505;28;20492;-43
2021/08/18 09:09:51;;;;;;;8.50;4.60;;;15.00;99.90;;;;;;5041770;28;20525;-43
2021/08/18 09:12:28;;;;;;;12.50;4.90;;;14.90;99.90;;;;;;5044119;28;20448;-43
2021/08/18 09:15:13;;;;;;;9.30;5.00;;;14.90;99.90;;;;;;5053512;28;20938;-43
2021/08/18 09:17:45;;;;;;;6.27;4.70;;;14.90;99.90;;;;;;5057768;28;20452;-43
2021/08/18 09:20:18;;;;;;;7.53;5.00;;;14.80;99.90;;;;;;5048183;28;20588;-43
2021/08/18 09:22:53;;;;;;;7.57;5.20;;;14.90;99.90;;;;;;5038788;28;20450;-43
2021/08/18 09:25:28;;;;;;;11.60;4.60;;;14.80;99.90;;;;;;5040592;28;20452;-42
2021/08/18 09:28:18;;;;;;;7.97;4.17;;;14.80;99.90;;;;;;5040000;28;20441;-42
2021/08/18 09:30:57;;;;;;;7.63;4.90;;;14.70;99.90;;;;;;5037551;28;20449;-41
2021/08/18 09:33:36;;;;;;;8.70;4.53;;;14.70;99.90;;;;;;5039914;28;20558;-43
2021/08/18 09:36:07;;;;;;;6.10;3.90;;;14.70;99.90;;;;;;5039253;28;20449;-42
2021/08/18 09:38:40;;;;;;;7.53;4.40;;;14.70;99.90;;;;;;5038478;28;20473;-43
2021/08/18 09:41:19;;;;;;;7.50;4.63;;;14.70;99.90;;;;;;5031205;28;20485;-43
2021/08/18 09:43:50;;;;;;;8.27;4.53;;;14.70;99.90;;;;;;5035350;28;20484;-43
2021/08/18 09:46:29;;;;;;;7.13;4.00;;;14.70;99.90;;;;;;5036014;28;20476;-41
2021/08/18 09:49:08;;;;;;;5.63;3.93;;;14.70;99.90;;;;;;5048945;28;20970;-43
2021/08/18 09:51:43;;;;;;;6.47;4.20;;;14.60;99.90;;;;;;5035734;28;20457;-43
2021/08/18 09:54:19;;;;;;;5.93;4.23;;;14.70;99.90;;;;;;5038812;28;20455;-42
2021/08/18 09:56:50;;;;;;;7.20;4.57;;;14.70;99.90;;;;;;5042202;28;20529;-43
2021/08/18 09:59:21;;;;;;;9.97;4.77;;;14.60;99.90;;;;;;5038491;28;20457;-43
2021/08/18 10:01:52;;;;;;;12.40;5.23;;;14.70;99.90;;;;;;5042467;28;20487;-43
2021/08/18 10:04:23;;;;;;;6.27;4.53;;;14.60;99.90;;;;;;5041587;28;20862;-42
2021/08/18 10:06:55;;;;;;;9.17;4.57;;;14.60;99.90;;;;;;5041874;28;20498;-42
2021/08/18 10:09:28;;;;;;;11.30;4.97;;;14.60;99.90;;;;;;5034837;28;20445;-43
2021/08/18 10:11:58;;;;;;;8.60;4.03;;;14.60;99.90;;;;;;5039128;28;20457;-43
2021/08/18 10:14:29;;;;;;;10.10;4.00;;;14.60;99.90;;;;;;5040590;28;20466;-42
2021/08/18 10:17:00;;;;;;;6.70;4.10;;;14.60;99.90;;;;;;5059196;28;20479;-42
2021/08/18 10:19:32;;;;;;;7.03;4.30;;;14.60;99.90;;;;;;5026997;28;20474;-42
2021/08/18 10:22:03;;;;;;;6.90;3.90;;;14.60;99.90;;;;;;5041743;28;20457;-42
2021/08/18 10:24:38;;;;;;;7.77;5.30;;;14.50;99.90;;;;;;5040691;28;20485;-42
2021/08/18 10:27:09;;;;;;;6.90;4.27;;;14.50;99.90;;;;;;5041375;28;20445;-42
2021/08/18 10:29:40;;;;;;;7.40;4.13;;;14.50;99.90;;;;;;5028454;28;20456;-42
2021/08/18 10:32:13;;;;;;;6.10;4.30;;;14.50;99.90;;;;;;5042627;28;20844;-42
2021/08/18 10:34:50;;;;;;;4.63;3.60;;;14.40;99.90;;;;;;5042433;28;20457;-43
2021/08/18 10:37:27;;;;;;;7.30;4.43;;;14.30;99.90;;;;;;5041662;28;20570;-43
2021/08/18 10:40:13;;;;;;;7.27;4.90;;;14.30;99.90;;;;;;5042072;28;20441;-41
2021/08/18 10:42:45;;;;;;;7.87;3.73;;;14.30;99.90;;;;;;5056384;28;20452;-33
2021/08/18 10:45:39;;;;;;;5.53;4.50;;;14.30;99.90;;;;;;5053462;28;20479;-33
2021/08/18 10:48:10;;;;;;;5.43;4.20;;;14.20;99.90;;;;;;5046543;28;20445;-34
2021/08/18 10:50:47;;;;;;;6.80;4.10;;;14.20;99.90;;;;;;5042367;28;20498;-34
2021/08/18 10:53:34;;;;;;;9.90;4.83;;;14.10;99.90;;;;;;5047343;28;20600;-34
2021/08/18 10:56:42;;;;;;;12.57;4.77;;;14.10;99.90;;;;;;5026682;28;20458;-34
2021/08/18 10:59:53;;;;;;;6.10;4.50;;;14.00;99.90;;;;;;5047412;28;20458;-33
2021/08/18 11:02:56;;;;;;;6.13;4.00;;;14.00;99.90;;;;;;5061342;28;20456;-35
2021/08/18 11:05:30;;;;;;;10.93;5.10;;;14.00;99.90;;;;;;5059731;28;20474;-34
2021/08/18 11:08:06;;;;;;;7.10;4.10;;;13.90;99.90;;;;;;5074674;28;20567;-33
2021/08/18 11:10:40;;;;;;;10.67;4.90;;;13.90;99.90;;;;;;5046986;28;20460;-35
2021/08/18 11:13:13;;;;;;;8.53;4.77;;;13.90;99.90;;;;;;5062303;28;20453;-34
2021/08/18 11:15:57;;;;;;;9.70;5.00;;;13.90;99.90;;;;;;5063480;28;20448;-34
2021/08/18 11:18:30;;;;;;;6.40;5.50;;;13.80;99.90;;;;;;5064230;28;20507;-34
2021/08/18 11:21:02;;;;;;;7.17;4.50;;;13.80;99.90;;;;;;5057927;28;20560;-34
2021/08/18 11:23:36;;;;;;;6.90;4.10;;;13.80;99.90;;;;;;5060584;28;20491;-34
2021/08/18 11:26:07;;;;;;;10.20;4.90;;;13.80;99.90;;;;;;5058873;28;20740;-34
2021/08/18 11:28:38;;;;;;;5.40;4.50;;;13.80;99.90;;;;;;5062916;28;20522;-34
2021/08/18 11:31:14;;;;;;;7.53;5.37;;;13.80;99.90;;;;;;5061567;28;20497;-34
2021/08/18 11:33:45;;;;;;;6.70;4.73;;;13.80;99.90;;;;;;5070817;28;20469;-34
2021/08/18 11:36:20;;;;;;;9.43;5.37;;;13.70;99.90;;;;;;5061298;28;20451;-34
2021/08/18 11:38:59;;;;;;;7.57;4.37;;;13.70;99.90;;;;;;5047325;28;20475;-34
2021/08/18 11:41:50;;;;;;;7.23;4.40;;;13.70;99.90;;;;;;5041474;28;20582;-34
2021/08/18 11:44:29;;;;;;;9.37;3.90;;;13.60;99.90;;;;;;5039410;28;20449;-34
2021/08/18 11:47:10;;;;;;;10.83;4.80;;;13.60;99.90;;;;;;5051539;28;20516;-34
2021/08/18 11:49:43;;;;;;;6.50;4.50;;;13.60;99.90;;;;;;5050586;28;20525;-34
2021/08/18 11:52:18;;;;;;;7.53;5.00;;;13.60;99.90;;;;;;5040389;28;20442;-34
2021/08/18 11:54:54;;;;;;;7.67;5.03;;;13.50;99.90;;;;;;5041263;28;20445;-35
2021/08/18 11:57:25;;;;;;;8.30;5.00;;;13.50;99.90;;;;;;5039108;28;20453;-34
2021/08/18 11:59:57;;;;;;;6.70;5.00;;;13.40;99.90;;;;;;5038505;28;20551;-33
2021/08/18 12:02:31;;;;;;;8.43;4.60;;;13.40;99.90;;;;;;5039000;28;20489;-34
2021/08/18 12:05:04;;;;;;;7.23;4.67;;;13.30;99.90;;;;;;5045421;28;20516;-33
2021/08/18 12:07:36;;;;;;;6.00;5.00;;;13.30;99.90;;;;;;5051226;28;20456;-34
2021/08/18 12:10:18;;;;;;;6.33;4.53;;;13.30;99.90;;;;;;5048667;28;20887;-33
2021/08/18 12:13:03;;;;;;;12.47;6.67;;;13.40;99.90;;;;;;5042709;28;20457;-33
2021/08/18 12:15:35;;;;;;;12.30;5.87;;;13.40;99.90;;;;;;5047289;28;20825;-33
2021/08/18 12:18:27;;;;;;;5.60;5.00;;;13.30;99.90;;;;;;5057584;28;20513;-34
2021/08/18 12:21:19;;;;;;;9.17;5.53;;;13.40;99.90;;;;;;5040454;28;20537;-33
2021/08/18 12:23:50;;;;;;;6.60;5.90;;;13.40;99.90;;;;;;5040490;28;20481;-33
2021/08/18 12:26:29;;;;;;;6.93;6.20;;;13.40;99.90;;;;;;5040655;28;20457;-32
2021/08/18 12:29:01;;;;;;;16.30;6.37;;;13.40;99.90;;;;;;5049416;28;20458;-33
2021/08/18 12:31:53;;;;;;;10.57;6.50;;;13.40;99.90;;;;;;5037498;28;20477;-33
2021/08/18 12:34:39;;;;;;;10.23;6.30;;;13.40;99.90;;;;;;5041034;28;20574;-33
2021/08/18 12:37:12;;;;;;;8.63;6.63;;;13.50;99.90;;;;;;5039723;28;20441;-34
2021/08/18 12:39:45;;;;;;;9.40;6.73;;;13.60;99.90;;;;;;5048039;28;20492;-34
2021/08/18 12:42:28;;;;;;;9.63;7.00;;;13.60;99.90;;;;;;5038185;28;20513;-34
2021/08/18 12:45:10;;;;;;;11.20;6.67;;;13.80;99.90;;;;;;5046228;28;20464;-34
2021/08/18 12:47:42;;;;;;;11.37;6.90;;;13.80;99.90;;;;;;5060152;28;20452;-34
2021/08/18 12:50:16;;;;;;;8.47;6.40;;;13.80;99.90;;;;;;5055041;28;20858;-34
2021/08/18 12:52:47;;;;;;;7.47;5.63;;;13.80;99.90;;;;;;5049747;28;20804;-34
2021/08/18 12:55:18;;;;;;;8.07;6.10;;;13.80;99.90;;;;;;5043211;28;20513;-34
2021/08/18 12:57:49;;;;;;;9.40;6.23;;;13.80;99.90;;;;;;5045346;28;20885;-34
2021/08/18 13:00:20;;;;;;;7.43;5.97;;;13.90;99.90;;;;;;5052837;28;20449;-35
2021/08/18 13:02:52;;;;;;;7.07;5.93;;;13.90;99.90;;;;;;5039020;28;20485;-34
2021/08/18 13:05:25;;;;;;;9.63;6.47;;;14.10;99.90;;;;;;5049806;28;20548;-34
2021/08/18 13:07:56;;;;;;;9.10;6.07;;;14.10;99.90;;;;;;5060302;28;20444;-34
2021/08/18 13:10:27;;;;;;;7.27;5.97;;;14.20;99.90;;;;;;5052546;28;20827;-35
2021/08/18 13:12:58;;;;;;;8.67;5.73;;;14.30;99.90;;;;;;5040176;28;20457;-35
2021/08/18 13:15:29;;;;;;;6.73;6.00;;;14.40;99.90;;;;;;5050138;28;20453;-35
2021/08/18 13:18:00;;;;;;;8.63;6.03;;;14.50;99.90;;;;;;5053505;28;20471;-35
2021/08/18 13:20:34;;;;;;;8.40;6.97;;;14.50;99.90;;;;;;5031924;28;20506;-35